Time;durP1;ratioP1;P1;durP2;ratioP2;P2;SDS_P1;SDS_P2;PMS_P1;PMS_P2;Temp;Humidity;BMP_temperature;BMP_pressure;BME280_temperature;BME280_humidity;BME280_pressure;Samples;Min_cycle;Max_cycle;Signal;HPM_P1;HPM_P2
2024/03/21 00:03:09;;;;;;;91.30;48.50;;;;;;;5.60;98.47;100619.86;178720;1258;46049;-81
2024/03/21 00:07:12;;;;;;;88.80;49.40;;;;;;;5.51;99.65;100618.10;177763;1258;44179;-82
2024/03/21 00:11:15;;;;;;;84.30;54.10;;;;;;;5.46;100.00;100620.84;178584;1256;44397;-82
2024/03/21 00:15:18;;;;;;;75.20;46.40;;;;;;;5.43;100.00;100618.52;177978;1257;59705;-82
2024/03/21 00:19:21;;;;;;;77.10;48.60;;;;;;;5.42;99.01;100616.66;178881;1257;46275;-82
2024/03/21 00:23:25;;;;;;;83.40;49.40;;;;;;;5.43;98.48;100613.95;177933;1257;46090;-81
2024/03/21 00:27:28;;;;;;;81.70;46.90;;;;;;;5.44;97.67;100618.11;178968;1256;45951;-82
2024/03/21 00:31:31;;;;;;;83.70;49.30;;;;;;;5.45;97.89;100612.42;178511;1257;45904;-81
2024/03/21 00:35:35;;;;;;;88.60;48.80;;;;;;;5.42;97.51;100614.55;178005;1258;59640;-82
2024/03/21 00:39:42;;;;;;;113.40;60.60;;;;;;;5.42;97.98;100610.86;178317;1260;46100;-82
2024/03/21 00:43:45;;;;;;;242.20;114.40;;;;;;;5.33;99.07;100608.88;177906;1257;46081;-82
2024/03/21 00:47:48;;;;;;;160.60;85.70;;;;;;;5.21;100.00;100603.15;177677;1258;46038;-81
2024/03/21 00:51:50;;;;;;;165.70;75.80;;;;;;;5.10;100.00;100601.29;177532;1256;46210;-81
2024/03/21 00:55:53;;;;;;;150.70;87.90;;;;;;;5.04;100.00;100598.11;178229;1259;59535;-82
2024/03/21 00:59:57;;;;;;;125.00;70.30;;;;;;;5.05;100.00;100595.08;178065;1257;46045;-83
2024/03/21 01:04:00;;;;;;;81.80;47.00;;;;;;;5.09;100.00;100584.63;178302;1256;46221;-82
2024/03/21 01:08:03;;;;;;;84.20;48.10;;;;;;;5.17;100.00;100583.20;178495;1257;46085;-82
2024/03/21 01:12:06;;;;;;;80.20;44.50;;;;;;;5.22;99.41;100577.13;178316;1260;46643;-82
2024/03/21 01:16:11;;;;;;;72.00;47.10;;;;;;;5.24;98.30;100574.52;178617;1257;58200;-83
2024/03/21 01:20:14;;;;;;;73.40;44.90;;;;;;;5.27;98.45;100570.81;178219;1257;46093;-82
2024/03/21 01:24:17;;;;;;;86.30;52.40;;;;;;;5.31;98.79;100562.77;178235;1256;46001;-83
2024/03/21 01:28:20;;;;;;;80.80;49.50;;;;;;;5.30;99.60;100560.30;177678;1257;45976;-83
2024/03/21 01:32:23;;;;;;;76.30;47.80;;;;;;;5.21;100.00;100555.16;177916;1256;46786;-83
2024/03/21 01:36:26;;;;;;;82.90;51.40;;;;;;;5.08;100.00;100552.20;177681;1256;60772;-81
2024/03/21 01:40:29;;;;;;;76.00;52.00;;;;;;;5.00;100.00;100547.69;178294;1257;46048;-82
2024/03/21 01:44:31;;;;;;;67.90;44.60;;;;;;;4.96;100.00;100547.54;179936;1256;44343;-81
2024/03/21 01:48:35;;;;;;;79.20;45.90;;;;;;;4.90;100.00;100549.83;178761;1257;46455;-82
2024/03/21 01:52:41;;;;;;;76.20;45.00;;;;;;;4.84;100.00;100554.85;177593;1256;44414;-82
2024/03/21 01:56:44;;;;;;;62.50;35.70;;;;;;;4.83;100.00;100550.52;179371;1257;59600;-82
2024/03/21 02:00:47;;;;;;;62.40;36.60;;;;;;;4.77;100.00;100547.52;178742;1256;45981;-82
2024/03/21 02:04:50;;;;;;;71.80;39.60;;;;;;;4.65;100.00;100549.02;179383;1256;46020;-82
2024/03/21 02:08:54;;;;;;;61.10;34.90;;;;;;;4.64;100.00;100549.06;178606;1256;45987;-82
2024/03/21 02:12:58;;;;;;;66.70;40.60;;;;;;;4.69;100.00;100542.98;178196;1255;46045;-82
2024/03/21 02:17:01;;;;;;;66.40;37.20;;;;;;;4.75;100.00;100542.02;178036;1256;58260;-81
2024/03/21 02:21:06;;;;;;;65.60;39.40;;;;;;;4.75;100.00;100541.84;177483;1259;45987;-83
2024/03/21 02:25:11;;;;;;;63.90;38.20;;;;;;;4.75;100.00;100540.25;178403;1256;46144;-82
2024/03/21 02:29:14;;;;;;;72.80;41.10;;;;;;;4.74;100.00;100538.23;178259;1256;46006;-82
2024/03/21 02:33:17;;;;;;;76.20;50.80;;;;;;;4.57;100.00;100537.29;178527;1258;44537;-83
2024/03/21 02:37:19;;;;;;;87.10;49.50;;;;;;;4.46;100.00;100532.27;178934;1256;58448;-81
2024/03/21 02:41:23;;;;;;;86.80;51.30;;;;;;;4.31;100.00;100528.48;178090;1256;45999;-83
2024/03/21 02:45:26;;;;;;;78.20;50.00;;;;;;;4.19;100.00;100525.06;178307;1256;46035;-83
2024/03/21 02:49:29;;;;;;;88.70;52.60;;;;;;;4.02;100.00;100520.97;179180;1256;45970;-82
2024/03/21 02:53:32;;;;;;;90.30;56.00;;;;;;;3.93;100.00;100516.35;177633;1256;46103;-82
2024/03/21 02:57:35;;;;;;;86.70;51.60;;;;;;;3.94;100.00;100517.20;177485;1256;59670;-83
2024/03/21 03:01:38;;;;;;;93.50;49.70;;;;;;;4.01;100.00;100515.26;177797;1256;46164;-83
2024/03/21 03:05:44;;;;;;;69.60;44.30;;;;;;;4.11;100.00;100511.21;178795;1256;46094;-83
2024/03/21 03:09:47;;;;;;;81.10;48.60;;;;;;;4.11;100.00;100505.95;177613;1256;46119;-82
2024/03/21 03:13:50;;;;;;;83.00;52.60;;;;;;;4.22;100.00;100501.73;177900;1256;45967;-83
2024/03/21 03:17:53;;;;;;;86.90;56.70;;;;;;;4.37;100.00;100505.68;177860;1256;58608;-82
2024/03/21 03:21:56;;;;;;;80.80;48.70;;;;;;;4.52;100.00;100513.16;177565;1255;46105;-82
2024/03/21 03:25:59;;;;;;;85.10;52.50;;;;;;;4.67;100.00;100519.89;178457;1258;46158;-82
2024/03/21 03:30:03;;;;;;;74.50;43.10;;;;;;;4.83;100.00;100522.44;178054;1256;46115;-83
2024/03/21 03:38:27;;;;;;;84.80;52.20;;;;;;;4.99;100.00;100530.85;177802;1257;58076;-82
2024/03/21 03:42:30;;;;;;;84.70;54.70;;;;;;;5.07;100.00;100525.33;178039;1256;45982;-82
2024/03/21 03:46:33;;;;;;;90.20;55.20;;;;;;;5.13;100.00;100523.25;178912;1255;46064;-82
2024/03/21 03:50:36;;;;;;;87.90;52.90;;;;;;;5.23;100.00;100529.77;178393;1256;46000;-83
2024/03/21 03:54:39;;;;;;;95.00;54.90;;;;;;;5.31;100.00;100529.27;178049;1256;44828;-83
2024/03/21 03:58:42;;;;;;;86.00;50.30;;;;;;;5.39;100.00;100531.70;178166;1256;58865;-83
2024/03/21 04:02:45;;;;;;;83.20;52.00;;;;;;;5.35;100.00;100537.36;178243;1256;45984;-82
2024/03/21 04:06:48;;;;;;;91.50;54.30;;;;;;;5.39;100.00;100531.14;178401;1255;46014;-83
2024/03/21 04:10:51;;;;;;;85.20;53.00;;;;;;;5.45;100.00;100531.89;178468;1256;45984;-83
2024/03/21 04:14:54;;;;;;;91.90;58.30;;;;;;;5.51;100.00;100532.76;177788;1256;46006;-82
2024/03/21 04:18:57;;;;;;;75.80;52.30;;;;;;;5.61;100.00;100534.34;178655;1256;58295;-85
2024/03/21 04:23:00;;;;;;;93.90;53.80;;;;;;;5.68;100.00;100537.97;179328;1255;46090;-84
2024/03/21 04:27:03;;;;;;;88.80;53.60;;;;;;;5.69;100.00;100533.54;178726;1257;46391;-84
2024/03/21 04:31:06;;;;;;;98.80;53.70;;;;;;;5.72;100.00;100533.48;180956;1256;44271;-83
2024/03/21 04:35:09;;;;;;;87.40;54.00;;;;;;;5.79;100.00;100531.87;181062;1256;44084;-84
2024/03/21 04:39:12;;;;;;;79.30;49.20;;;;;;;5.84;100.00;100528.60;178570;1256;58765;-83
2024/03/21 04:43:15;;;;;;;67.60;45.50;;;;;;;5.76;100.00;100526.25;177985;1256;46104;-84
2024/03/21 04:47:18;;;;;;;75.70;52.00;;;;;;;5.50;100.00;100530.16;178873;1256;46086;-84
2024/03/21 04:51:21;;;;;;;87.80;54.10;;;;;;;5.33;100.00;100537.48;178696;1256;46219;-83
2024/03/21 04:55:24;;;;;;;81.70;55.00;;;;;;;5.29;100.00;100539.42;178120;1257;46163;-83
2024/03/21 04:59:36;;;;;;;87.40;53.10;;;;;;;5.36;100.00;100539.39;177989;1256;58755;-83
2024/03/21 05:03:38;;;;;;;87.80;51.90;;;;;;;5.34;100.00;100536.70;178982;1256;46106;-82
2024/03/21 05:07:41;;;;;;;86.10;56.10;;;;;;;5.27;100.00;100538.27;178815;1256;46116;-83
2024/03/21 05:11:44;;;;;;;71.80;52.10;;;;;;;5.27;100.00;100537.59;179254;1256;46898;-85
2024/03/21 05:15:50;;;;;;;79.50;53.80;;;;;;;5.30;100.00;100532.55;178477;1256;45994;-84
2024/03/21 05:19:53;;;;;;;84.80;53.80;;;;;;;5.34;100.00;100525.80;179804;1256;59315;-83
2024/03/21 05:23:56;;;;;;;79.50;50.10;;;;;;;5.35;100.00;100519.05;178459;1255;46163;-84
2024/03/21 05:27:58;;;;;;;83.30;50.50;;;;;;;5.33;100.00;100516.89;179050;1256;46026;-83
2024/03/21 05:32:02;;;;;;;74.80;50.60;;;;;;;5.23;100.00;100520.06;180398;1256;45870;-83
2024/03/21 05:36:06;;;;;;;82.00;54.80;;;;;;;5.18;100.00;100518.58;180061;1256;46110;-84
2024/03/21 05:40:09;;;;;;;80.80;52.30;;;;;;;5.24;100.00;100520.88;179918;1256;58088;-82
2024/03/21 05:44:12;;;;;;;72.80;46.60;;;;;;;5.33;100.00;100519.35;179776;1256;44799;-83
2024/03/21 05:48:14;;;;;;;81.30;49.00;;;;;;;5.32;100.00;100520.64;180742;1256;45100;-83
2024/03/21 05:52:18;;;;;;;76.60;50.50;;;;;;;5.37;100.00;100516.34;181184;1255;44045;-83
2024/03/21 05:56:20;;;;;;;77.20;53.60;;;;;;;5.53;100.00;100516.11;181226;1256;44055;-83
2024/03/21 06:00:23;;;;;;;78.80;47.90;;;;;;;5.77;100.00;100506.46;181142;1257;59272;-83
2024/03/21 06:04:28;;;;;;;70.90;48.10;;;;;;;5.94;100.00;100508.99;179377;1255;46044;-83
2024/03/21 06:08:30;;;;;;;72.50;47.70;;;;;;;6.10;100.00;100512.66;178497;1259;46063;-83
2024/03/21 06:12:33;;;;;;;74.60;49.50;;;;;;;6.27;100.00;100507.79;178494;1256;46042;-83
2024/03/21 06:16:36;;;;;;;70.90;48.60;;;;;;;6.35;100.00;100511.95;178955;1256;45982;-84
2024/03/21 06:20:38;;;;;;;89.00;53.10;;;;;;;6.46;100.00;100517.78;178567;1256;58253;-82
2024/03/21 06:24:41;;;;;;;76.20;45.20;;;;;;;6.59;100.00;100511.20;177594;1256;46195;-83
2024/03/21 06:28:44;;;;;;;80.20;44.90;;;;;;;6.64;100.00;100509.80;179277;1256;47979;-84
2024/03/21 06:32:47;;;;;;;61.10;42.00;;;;;;;6.67;100.00;100510.52;177664;1256;46055;-82
2024/03/21 06:36:49;;;;;;;70.30;43.20;;;;;;;6.79;100.00;100509.61;178245;1256;46007;-82
2024/03/21 06:40:52;;;;;;;63.00;41.20;;;;;;;6.98;100.00;100502.26;179224;1258;59615;-83
2024/03/21 06:44:55;;;;;;;63.30;40.10;;;;;;;7.24;100.00;100499.94;178801;1256;45634;-83
2024/03/21 06:48:58;;;;;;;68.50;44.00;;;;;;;7.55;100.00;100499.16;178045;1258;46226;-83
2024/03/21 06:53:00;;;;;;;71.10;42.80;;;;;;;7.83;100.00;100496.96;178394;1256;46083;-83
2024/03/21 06:57:03;;;;;;;53.00;36.90;;;;;;;8.05;100.00;100490.02;178413;1255;44378;-83
2024/03/21 07:01:06;;;;;;;65.70;36.00;;;;;;;8.10;100.00;100491.09;178456;1256;57897;-83
2024/03/21 07:05:10;;;;;;;62.00;42.00;;;;;;;8.22;100.00;100494.02;178262;1256;46007;-83
2024/03/21 07:09:12;;;;;;;56.80;34.30;;;;;;;8.37;100.00;100498.05;178508;1256;44093;-83
2024/03/21 07:13:15;;;;;;;49.90;34.00;;;;;;;8.56;100.00;100495.93;179334;1256;46217;-82
2024/03/21 07:17:19;;;;;;;45.40;30.20;;;;;;;8.80;100.00;100493.52;178968;1256;46004;-83
2024/03/21 07:21:22;;;;;;;51.70;34.20;;;;;;;9.03;100.00;100492.44;177979;1256;58326;-84
2024/03/21 07:25:24;;;;;;;47.30;31.40;;;;;;;9.30;100.00;100489.78;178270;1256;46104;-82
2024/03/21 07:29:28;;;;;;;45.80;30.70;;;;;;;9.59;100.00;100490.15;178522;1255;44481;-83
2024/03/21 07:33:30;;;;;;;100.00;68.50;;;;;;;9.85;100.00;100492.66;178267;1256;46019;-83
2024/03/21 07:37:33;;;;;;;47.30;34.80;;;;;;;10.14;100.00;100494.40;178225;1255;45939;-82
2024/03/21 07:41:36;;;;;;;46.20;31.00;;;;;;;10.32;100.00;100492.16;179644;1256;58446;-83
2024/03/21 07:45:39;;;;;;;54.80;41.60;;;;;;;10.50;100.00;100488.66;177986;1259;45945;-82
2024/03/21 07:49:41;;;;;;;60.50;47.40;;;;;;;10.73;100.00;100490.92;177767;1256;46118;-79
2024/03/21 07:53:44;;;;;;;58.80;41.30;;;;;;;10.94;100.00;100489.46;179377;1256;44468;-83
2024/03/21 07:57:48;;;;;;;49.80;34.40;;;;;;;11.22;100.00;100489.00;178254;1256;46047;-84
2024/03/21 08:01:52;;;;;;;52.90;37.60;;;;;;;11.50;99.95;100489.96;179178;1256;60093;-84
2024/03/21 08:05:54;;;;;;;56.90;39.80;;;;;;;11.80;98.38;100484.27;178276;1256;45977;-83
2024/03/21 08:09:57;;;;;;;58.90;39.40;;;;;;;12.11;96.19;100480.40;179237;1256;46118;-81
2024/03/21 08:14:00;;;;;;;51.20;33.60;;;;;;;12.42;96.93;100479.10;177838;1256;46135;-84
2024/03/21 08:18:04;;;;;;;48.20;32.70;;;;;;;12.69;96.56;100476.71;178863;1255;46034;-82
2024/03/21 08:22:06;;;;;;;50.70;36.90;;;;;;;12.79;96.50;100472.52;180145;1256;60453;-84
2024/03/21 08:26:09;;;;;;;47.70;30.70;;;;;;;12.98;95.15;100475.64;178452;1255;44068;-83
2024/03/21 08:30:12;;;;;;;40.10;28.80;;;;;;;13.11;95.28;100472.31;180437;1256;44220;-84
2024/03/21 08:34:15;;;;;;;42.60;29.40;;;;;;;13.30;92.62;100476.16;179710;1255;45883;-83
2024/03/21 08:38:18;;;;;;;43.40;28.60;;;;;;;13.51;92.66;100478.58;179120;1255;46167;-83
2024/03/21 08:42:20;;;;;;;40.00;26.30;;;;;;;13.71;90.85;100479.12;178591;1256;59241;-84
2024/03/21 08:46:24;;;;;;;47.40;30.20;;;;;;;13.90;90.34;100476.13;178812;1256;46080;-83
2024/03/21 08:50:26;;;;;;;42.80;26.50;;;;;;;14.16;86.93;100474.81;178317;1259;46119;-85
2024/03/21 08:54:29;;;;;;;40.00;26.20;;;;;;;14.35;85.67;100478.91;179777;1256;44578;-84
2024/03/21 08:58:32;;;;;;;35.40;25.90;;;;;;;14.55;84.52;100477.05;178557;1255;46109;-84
2024/03/21 09:02:34;;;;;;;34.50;25.50;;;;;;;14.72;85.02;100473.83;179199;1257;60183;-84
2024/03/21 09:06:37;;;;;;;36.90;26.90;;;;;;;14.85;84.78;100477.21;179025;1255;45968;-83
2024/03/21 09:10:40;;;;;;;42.30;26.60;;;;;;;15.06;85.27;100473.98;178797;1256;45973;-85
2024/03/21 09:14:43;;;;;;;32.60;25.30;;;;;;;15.26;83.81;100467.74;178460;1255;46105;-83
2024/03/21 09:18:46;;;;;;;39.50;27.10;;;;;;;15.49;81.80;100463.11;178440;1256;46007;-84
2024/03/21 09:22:48;;;;;;;45.20;26.30;;;;;;;15.63;81.15;100462.96;178379;1256;59949;-84
2024/03/21 09:26:51;;;;;;;36.70;23.80;;;;;;;15.78;81.55;100463.25;178908;1259;46120;-84
2024/03/21 09:30:54;;;;;;;42.80;26.40;;;;;;;15.95;80.29;100466.10;178226;1255;45924;-84
2024/03/21 09:34:56;;;;;;;38.10;24.70;;;;;;;15.99;80.23;100464.91;178939;1256;46250;-83
2024/03/21 09:39:01;;;;;;;37.10;25.30;;;;;;;16.19;80.54;100460.24;178541;1255;45997;-83
2024/03/21 09:43:05;;;;;;;34.00;24.00;;;;;;;16.39;78.60;100457.47;178426;1259;58038;-84
2024/03/21 09:47:10;;;;;;;35.50;25.90;;;;;;;16.53;78.39;100453.75;179011;1256;46073;-84
2024/03/21 09:51:20;;;;;;;32.50;25.10;;;;;;;16.64;78.59;100456.14;178667;1256;46088;-83
2024/03/21 09:55:24;;;;;;;32.40;24.20;;;;;;;16.83;76.93;100457.02;178325;1255;46404;-85
2024/03/21 09:59:26;;;;;;;32.10;23.90;;;;;;;17.03;76.59;100454.27;177949;1256;46062;-83
2024/03/21 10:03:29;;;;;;;37.30;25.50;;;;;;;17.19;75.88;100454.45;179097;1256;59515;-85
2024/03/21 10:07:35;;;;;;;46.20;26.90;;;;;;;17.32;75.27;100454.45;178682;1256;46113;-83
2024/03/21 10:11:39;;;;;;;;;;;;;;;17.48;75.23;100444.80;178714;1256;44669;-85
2024/03/21 10:15:41;;;;;;;28.10;21.10;;;;;;;17.67;72.96;100449.95;179100;1256;44526;-83
2024/03/21 10:19:44;;;;;;;28.00;19.20;;;;;;;17.80;69.94;100455.16;178341;1259;46111;-84
2024/03/21 10:23:47;;;;;;;27.60;19.00;;;;;;;17.90;69.46;100457.11;178358;1257;59600;-83
2024/03/21 10:27:50;;;;;;;39.30;18.90;;;;;;;18.01;68.89;100452.29;178902;1256;45754;-84
2024/03/21 10:31:54;;;;;;;18.10;14.90;;;;;;;17.84;66.68;100453.10;178266;1256;46096;-83
2024/03/21 10:35:57;;;;;;;23.90;16.40;;;;;;;17.58;65.48;100454.29;178701;1256;46176;-83
2024/03/21 10:40:00;;;;;;;23.00;17.00;;;;;;;17.42;67.41;100455.26;178289;1259;46115;-84
2024/03/21 10:44:07;;;;;;;21.50;15.10;;;;;;;17.28;67.44;100457.79;179623;1256;58518;-84
2024/03/21 10:48:30;;;;;;;25.40;17.20;;;;;;;17.10;67.71;100457.23;178163;1256;46030;-84
2024/03/21 10:52:33;;;;;;;28.30;15.00;;;;;;;17.01;70.74;100457.54;178496;1256;46079;-82
2024/03/21 10:56:37;;;;;;;27.00;18.40;;;;;;;16.89;69.95;100455.77;178631;1255;45986;-84
2024/03/21 11:00:40;;;;;;;24.30;18.70;;;;;;;16.94;70.64;100455.73;179026;1256;46069;-84
2024/03/21 11:04:42;;;;;;;25.80;17.90;;;;;;;16.77;70.51;100460.52;178476;1256;58038;-84
2024/03/21 11:08:53;;;;;;;24.80;19.60;;;;;;;16.61;72.39;100460.90;180054;1259;43939;-83
2024/03/21 11:12:56;;;;;;;26.90;19.80;;;;;;;16.48;74.37;100460.87;179682;1259;44391;-83
2024/03/21 11:16:59;;;;;;;28.10;21.90;;;;;;;16.46;77.75;100458.41;178395;1256;44712;-84
2024/03/21 11:21:02;;;;;;;28.00;20.10;;;;;;;16.40;75.34;100457.67;179036;1259;190265;-84
2024/03/21 11:25:05;;;;;;;26.90;22.40;;;;;;;16.48;76.48;100456.44;178874;1257;59428;-83
2024/03/21 11:29:12;;;;;;;31.30;22.50;;;;;;;16.51;75.77;100461.09;179849;1256;45998;-84
2024/03/21 11:33:21;;;;;;;25.20;20.00;;;;;;;16.48;78.59;100456.74;179573;1255;44862;-83
2024/03/21 11:37:24;;;;;;;30.00;23.10;;;;;;;16.36;79.00;100458.33;178773;1259;45997;-84
2024/03/21 11:41:27;;;;;;;31.40;21.30;;;;;;;16.16;82.57;100452.66;178027;1256;45840;-84
2024/03/21 11:45:31;;;;;;;26.60;21.10;;;;;;;16.02;82.97;100452.36;178857;1255;57909;-84
2024/03/21 11:49:35;;;;;;;24.70;19.60;;;;;;;15.91;83.61;100447.34;178667;1256;46170;-84
2024/03/21 11:53:38;;;;;;;24.60;17.20;;;;;;;15.88;84.57;100443.91;178859;1255;44567;-83
2024/03/21 11:57:40;;;;;;;21.00;17.60;;;;;;;15.91;86.25;100438.77;178243;1255;45991;-84
2024/03/21 12:01:43;;;;;;;20.80;17.70;;;;;;;15.95;83.32;100435.61;178567;1256;46112;-83
2024/03/21 12:05:46;;;;;;;21.30;16.50;;;;;;;16.01;81.90;100436.88;178368;1256;57914;-84
2024/03/21 12:09:49;;;;;;;21.70;16.70;;;;;;;16.10;80.29;100433.60;178625;1256;46068;-81
2024/03/21 12:13:51;;;;;;;25.50;17.30;;;;;;;16.28;79.26;100434.98;179157;1256;45915;-84
2024/03/21 12:17:54;;;;;;;21.00;17.00;;;;;;;16.47;79.65;100427.14;178436;1255;46039;-84
2024/03/21 12:21:57;;;;;;;19.10;15.90;;;;;;;16.67;78.26;100423.25;179161;1256;45946;-84
2024/03/21 12:26:00;;;;;;;26.70;17.30;;;;;;;16.84;76.04;100423.41;179345;1255;58174;-84
2024/03/21 12:30:03;;;;;;;23.70;16.90;;;;;;;17.03;75.24;100421.42;177997;1256;46062;-83
2024/03/21 12:34:05;;;;;;;24.60;16.30;;;;;;;17.19;74.84;100419.24;178173;1259;46018;-84
2024/03/21 12:38:08;;;;;;;23.60;15.40;;;;;;;17.36;73.98;100418.48;178388;1256;46002;-84
2024/03/21 12:42:12;;;;;;;20.00;13.40;;;;;;;17.48;72.03;100420.88;178619;1259;45247;-83
2024/03/21 12:46:15;;;;;;;15.50;13.30;;;;;;;17.55;71.45;100413.31;179126;1256;57913;-81
2024/03/21 12:50:17;;;;;;;14.70;11.10;;;;;;;17.57;70.46;100415.27;178041;1256;46147;-83
2024/03/21 12:54:20;;;;;;;18.40;12.10;;;;;;;17.68;70.51;100412.70;179198;1259;46092;-83
2024/03/21 12:58:23;;;;;;;17.00;12.90;;;;;;;17.82;69.19;100404.48;178237;1256;45682;-83
2024/03/21 13:02:26;;;;;;;18.90;13.90;;;;;;;17.87;68.95;100399.08;178460;1256;46036;-86
2024/03/21 13:06:28;;;;;;;18.90;14.40;;;;;;;17.94;70.54;100401.80;178902;1256;58087;-83
2024/03/21 13:10:33;;;;;;;27.50;16.60;;;;;;;17.97;71.16;100403.08;179624;1256;45225;-82
2024/03/21 13:14:36;;;;;;;22.60;15.60;;;;;;;17.96;71.91;100405.09;178841;1255;46069;-83
2024/03/21 13:18:39;;;;;;;22.80;16.80;;;;;;;17.98;73.62;100411.34;178829;1256;46092;-82
2024/03/21 13:22:46;;;;;;;20.80;16.40;;;;;;;17.90;75.00;100413.75;178258;1255;46120;-83
2024/03/21 13:26:50;;;;;;;21.20;15.80;;;;;;;17.76;73.92;100413.26;178361;1256;59713;-81
2024/03/21 13:30:55;;;;;;;24.30;15.90;;;;;;;17.64;74.76;100417.91;178640;1256;46130;-83
2024/03/21 13:34:58;;;;;;;18.90;16.30;;;;;;;17.52;74.76;100423.94;179392;1255;44161;-82
2024/03/21 13:39:04;;;;;;;27.40;16.20;;;;;;;17.45;75.68;100417.89;178808;1259;46125;-82
2024/03/21 13:43:06;;;;;;;23.70;16.10;;;;;;;17.37;74.75;100408.01;178173;1258;45693;-83
2024/03/21 13:47:09;;;;;;;69.50;22.00;;;;;;;17.33;76.28;100404.47;178638;1256;59643;-83
2024/03/21 13:51:12;;;;;;;23.90;15.80;;;;;;;17.22;77.66;100392.73;178616;1256;46029;-83
2024/03/21 13:55:15;;;;;;;26.10;16.50;;;;;;;17.06;78.01;100386.91;178618;1259;46028;-82
2024/03/21 13:59:18;;;;;;;23.90;17.30;;;;;;;16.92;78.52;100381.20;180005;1256;44258;-83
2024/03/21 14:03:22;;;;;;;25.30;18.40;;;;;;;16.77;79.82;100380.17;179883;1256;45923;-82
2024/03/21 14:07:25;;;;;;;30.40;21.50;;;;;;;16.72;79.51;100376.79;179076;1256;58274;-82
2024/03/21 14:11:28;;;;;;;19.50;16.90;;;;;;;16.67;79.72;100375.91;178591;1259;46112;-83
2024/03/21 14:15:32;;;;;;;29.50;18.70;;;;;;;16.63;81.84;100372.65;178498;1257;45231;-83
2024/03/21 14:19:35;;;;;;;36.50;23.70;;;;;;;16.56;83.48;100365.51;178636;1255;45248;-83
2024/03/21 14:23:38;;;;;;;34.30;20.40;;;;;;;16.39;87.92;100355.93;178574;1256;44165;-84
2024/03/21 14:27:43;;;;;;;27.50;20.80;;;;;;;16.35;88.70;100350.64;178749;1256;59716;-83
2024/03/21 14:31:46;;;;;;;29.80;20.30;;;;;;;16.38;88.09;100347.16;178191;1257;46119;-82
2024/03/21 14:35:49;;;;;;;31.60;25.40;;;;;;;16.33;88.56;100343.94;178389;1256;44560;-84
2024/03/21 14:39:52;;;;;;;37.00;23.90;;;;;;;16.27;90.22;100346.19;178511;1257;46105;-84
2024/03/21 14:43:58;;;;;;;37.40;20.50;;;;;;;16.31;88.81;100350.39;178645;1256;46008;-84
2024/03/21 14:48:01;;;;;;;37.80;22.10;;;;;;;16.39;88.71;100351.88;178972;1256;59347;-82
2024/03/21 14:52:07;;;;;;;37.20;22.00;;;;;;;16.49;89.08;100350.36;179244;1256;44038;-82
2024/03/21 14:56:12;;;;;;;27.70;18.50;;;;;;;16.56;89.43;100352.06;178630;1259;45953;-83
2024/03/21 15:00:16;;;;;;;26.00;18.50;;;;;;;16.61;88.20;100356.02;177799;1259;46164;-83
2024/03/21 15:04:19;;;;;;;26.60;18.60;;;;;;;16.67;89.56;100358.93;178468;1259;44209;-83
2024/03/21 15:08:22;;;;;;;25.10;20.50;;;;;;;16.91;90.64;100349.41;178894;1259;58285;-83
2024/03/21 15:12:25;;;;;;;25.30;19.30;;;;;;;17.22;90.57;100337.70;178994;1256;46688;-82
2024/03/21 15:16:30;;;;;;;25.80;19.70;;;;;;;17.45;85.33;100339.17;179193;1256;46187;-83
2024/03/21 15:20:35;;;;;;;22.40;18.20;;;;;;;17.62;81.02;100344.11;179073;1258;44416;-83
2024/03/21 15:24:38;;;;;;;25.60;17.00;;;;;;;17.69;81.22;100344.08;179305;1257;46015;-81
2024/03/21 15:28:42;;;;;;;24.70;16.00;;;;;;;17.70;80.71;100350.02;179250;1259;58309;-81
2024/03/21 15:32:46;;;;;;;25.00;15.70;;;;;;;17.75;79.06;100350.71;179388;1259;43866;-80
2024/03/21 15:36:49;;;;;;;24.70;19.30;;;;;;;17.77;79.46;100340.85;178023;1259;46084;-80
2024/03/21 15:40:52;;;;;;;23.90;16.10;;;;;;;17.61;78.59;100344.39;177815;1259;46132;-82
2024/03/21 15:44:55;;;;;;;21.50;17.00;;;;;;;17.36;79.61;100337.67;179137;1259;46125;-79
2024/03/21 15:49:00;;;;;;;25.10;16.40;;;;;;;17.14;77.50;100338.95;178592;1256;58331;-81
2024/03/21 15:53:03;;;;;;;;;;;;;;;16.96;78.41;100347.68;177943;1256;45102;-80
2024/03/21 15:57:06;;;;;;;23.80;17.70;;;;;;;16.76;79.54;100346.96;178879;1257;44920;-81
2024/03/21 16:01:09;;;;;;;26.30;18.60;;;;;;;16.54;80.86;100350.85;177947;1256;46234;-81
2024/03/21 16:05:12;;;;;;;25.00;20.00;;;;;;;16.34;81.99;100349.67;178185;1257;45985;-81
2024/03/21 16:09:16;;;;;;;28.40;20.50;;;;;;;16.17;83.71;100362.95;178718;1256;57431;-80
2024/03/21 16:13:19;;;;;;;27.10;20.30;;;;;;;16.03;85.24;100373.85;178770;1259;46057;-81
2024/03/21 16:17:22;;;;;;;25.80;20.20;;;;;;;15.93;86.29;100379.23;178031;1259;46092;-81
2024/03/21 16:21:25;;;;;;;36.20;20.60;;;;;;;15.79;87.21;100382.57;178340;1257;46052;-81
2024/03/21 16:25:28;;;;;;;25.30;17.80;;;;;;;15.64;86.87;100384.23;178649;1260;45959;-80
2024/03/21 16:29:31;;;;;;;30.20;19.60;;;;;;;15.51;86.34;100388.42;179054;1259;57927;-80
2024/03/21 16:33:34;;;;;;;21.70;16.80;;;;;;;15.38;86.58;100392.05;179130;1257;45229;-81
2024/03/21 16:37:37;;;;;;;26.10;16.70;;;;;;;15.30;87.31;100401.08;178667;1256;46399;-80
2024/03/21 16:41:40;;;;;;;24.60;16.90;;;;;;;15.20;88.66;100406.81;179208;1256;46114;-81
2024/03/21 16:45:43;;;;;;;30.20;17.80;;;;;;;15.09;88.45;100411.52;178118;1257;46030;-81
2024/03/21 16:49:46;;;;;;;21.50;17.50;;;;;;;14.98;89.68;100424.94;178714;1258;57343;-81
2024/03/21 16:53:52;;;;;;;43.70;15.50;;;;;;;14.92;90.70;100427.45;178728;1258;46093;-81
2024/03/21 16:57:55;;;;;;;;;;;;;;;14.75;91.35;100433.88;178446;1258;46128;-81
2024/03/21 17:01:58;;;;;;;17.50;13.90;;;;;;;14.61;92.75;100450.02;178143;1259;45792;-81
2024/03/21 17:06:00;;;;;;;25.70;17.60;;;;;;;14.55;91.95;100460.20;178340;1257;46233;-80
2024/03/21 17:10:05;;;;;;;19.40;12.80;;;;;;;14.55;94.57;100470.94;179115;1257;59450;-81
2024/03/21 17:14:08;;;;;;;23.80;16.50;;;;;;;14.46;95.47;100467.70;178540;1257;46066;-81
2024/03/21 17:18:11;;;;;;;31.00;17.50;;;;;;;14.38;94.68;100469.64;177942;1257;46014;-81
2024/03/21 17:22:14;;;;;;;17.40;12.50;;;;;;;14.35;94.16;100469.80;178600;1258;46058;-81
2024/03/21 17:26:17;;;;;;;14.30;10.00;;;;;;;14.26;94.93;100479.53;178183;1256;46116;-81
2024/03/21 17:30:20;;;;;;;11.00;7.70;;;;;;;14.14;94.85;100483.88;177997;1255;59515;-81
2024/03/21 17:34:23;;;;;;;13.10;7.00;;;;;;;14.06;95.02;100489.77;178584;1257;45870;-82
2024/03/21 17:38:26;;;;;;;6.20;5.50;;;;;;;14.00;95.43;100495.00;179073;1256;46001;-81
2024/03/21 17:42:29;;;;;;;9.90;6.70;;;;;;;13.95;94.85;100497.45;178958;1258;46064;-81
2024/03/21 17:46:32;;;;;;;8.50;5.60;;;;;;;13.93;93.34;100499.77;178569;1256;46037;-81
2024/03/21 17:50:35;;;;;;;8.10;6.70;;;;;;;13.96;94.61;100504.97;178842;1256;59622;-81
2024/03/21 17:54:38;;;;;;;36.50;28.50;;;;;;;13.94;93.56;100510.12;177816;1257;46034;-81
2024/03/21 17:58:41;;;;;;;46.20;33.90;;;;;;;13.95;92.68;100511.15;179028;1257;44168;-82
2024/03/21 18:02:46;;;;;;;30.50;16.40;;;;;;;13.94;92.87;100515.83;178992;1257;45997;-83
2024/03/21 18:06:49;;;;;;;33.70;8.60;;;;;;;13.89;93.98;100515.27;178702;1259;46434;-85
2024/03/21 18:10:53;;;;;;;17.90;11.70;;;;;;;13.77;96.45;100519.59;178594;1257;58346;-85
2024/03/21 18:14:56;;;;;;;13.40;10.30;;;;;;;13.58;98.67;100531.66;179219;1257;46138;-84
2024/03/21 18:18:58;;;;;;;15.90;9.70;;;;;;;13.39;99.83;100533.46;180504;1257;43995;-85